createdAt,value
2023-12-23T00:00:27.248Z,8.40
2023-12-23T00:02:54.574Z,8.40
2023-12-23T00:05:21.996Z,8.40
2023-12-23T00:07:49.506Z,8.40
2023-12-23T00:10:17.175Z,8.30
2023-12-23T00:12:44.659Z,8.20
2023-12-23T00:15:12.063Z,8.10
2023-12-23T00:17:39.453Z,8.00
2023-12-23T00:20:08.067Z,7.90
2023-12-23T00:22:35.713Z,7.90
2023-12-23T00:25:03.689Z,7.90
2023-12-23T00:27:31.051Z,7.80
2023-12-23T00:29:58.569Z,7.80
2023-12-23T00:32:26.379Z,7.70
2023-12-23T00:34:54.004Z,7.80
2023-12-23T00:37:21.322Z,7.90
2023-12-23T00:39:48.711Z,8.10
2023-12-23T00:42:15.971Z,8.10
2023-12-23T00:44:43.249Z,8.20
2023-12-23T00:47:11.097Z,8.00
2023-12-23T00:49:38.498Z,8.10
2023-12-23T00:52:06.076Z,8.20
2023-12-23T00:54:33.485Z,8.10
2023-12-23T00:57:00.815Z,8.00
2023-12-23T00:59:28.064Z,8.00
2023-12-23T01:01:55.355Z,7.90
2023-12-23T01:04:22.819Z,7.80
2023-12-23T01:06:51.699Z,7.70
2023-12-23T01:09:19.089Z,7.70
2023-12-23T01:11:46.395Z,7.60
2023-12-23T01:14:13.839Z,7.50
2023-12-23T01:16:41.281Z,7.50
2023-12-23T01:19:09.018Z,7.40
2023-12-23T01:21:36.355Z,7.40
2023-12-23T01:24:03.795Z,7.20
2023-12-23T01:26:31.805Z,7.10
2023-12-23T01:29:01.832Z,7.10
2023-12-23T01:31:29.485Z,7.10
2023-12-23T01:33:57.110Z,7.00
2023-12-23T01:36:24.458Z,7.20
2023-12-23T01:38:51.735Z,7.60
2023-12-23T01:41:19.215Z,7.70
2023-12-23T01:43:46.630Z,7.70
2023-12-23T01:46:14.217Z,7.60
2023-12-23T01:48:45.613Z,7.50
2023-12-23T01:51:13.481Z,7.40
2023-12-23T01:53:41.861Z,7.30
2023-12-23T01:56:09.765Z,7.20
2023-12-23T01:58:37.385Z,7.20
2023-12-23T02:01:05.674Z,7.10
2023-12-23T02:03:33.352Z,7.00
2023-12-23T02:06:00.769Z,7.00
2023-12-23T02:08:28.292Z,7.00
2023-12-23T02:11:06.761Z,6.70
2023-12-23T02:13:45.795Z,6.80
2023-12-23T02:16:14.224Z,7.00
2023-12-23T02:18:42.299Z,6.90
2023-12-23T02:21:09.861Z,6.80
2023-12-23T02:23:37.184Z,6.70
2023-12-23T02:26:09.921Z,6.70
2023-12-23T02:28:38.604Z,6.60
2023-12-23T02:31:07.645Z,6.80
2023-12-23T02:33:35.745Z,6.80
2023-12-23T02:36:03.525Z,6.80
2023-12-23T02:38:30.828Z,6.80
2023-12-23T02:40:58.143Z,6.80
2023-12-23T02:43:25.475Z,6.70
2023-12-23T02:45:52.800Z,6.60
2023-12-23T02:48:21.012Z,6.60
2023-12-23T02:50:48.368Z,6.60
2023-12-23T02:53:15.706Z,6.40
2023-12-23T02:55:42.983Z,6.30
2023-12-23T02:58:11.252Z,6.20
2023-12-23T03:00:38.691Z,6.20
2023-12-23T03:03:06.132Z,6.00
2023-12-23T03:05:33.630Z,6.20
2023-12-23T03:08:00.951Z,6.40
2023-12-23T03:10:28.341Z,6.60
2023-12-23T03:12:55.610Z,6.70
2023-12-23T03:15:22.923Z,6.50
2023-12-23T03:17:50.417Z,6.60
2023-12-23T03:20:17.953Z,6.70
2023-12-23T03:22:45.294Z,6.80
2023-12-23T03:25:12.671Z,6.70
2023-12-23T03:27:39.999Z,6.80
2023-12-23T03:30:07.901Z,6.90
2023-12-23T03:32:35.724Z,6.90
2023-12-23T03:35:03.154Z,6.90
2023-12-23T03:37:30.458Z,6.90
2023-12-23T03:39:58.039Z,6.80
2023-12-23T03:42:25.234Z,6.70
2023-12-23T03:44:52.606Z,6.80
2023-12-23T03:47:19.892Z,6.80
2023-12-23T03:49:47.223Z,6.80
2023-12-23T03:52:14.499Z,6.80
2023-12-23T03:54:41.729Z,6.80
2023-12-23T03:57:08.977Z,7.00
2023-12-23T03:59:36.265Z,7.00
2023-12-23T04:02:04.427Z,7.00
2023-12-23T04:04:31.803Z,7.10
2023-12-23T04:06:59.097Z,7.10
2023-12-23T04:09:26.391Z,7.00
2023-12-23T04:11:53.682Z,7.10
2023-12-23T04:14:21.016Z,7.30
2023-12-23T04:16:48.654Z,7.10
2023-12-23T04:19:16.023Z,7.00
2023-12-23T04:21:43.321Z,7.00
2023-12-23T04:24:10.657Z,7.30
2023-12-23T04:26:37.925Z,7.20
2023-12-23T04:29:05.193Z,7.30
2023-12-23T04:31:32.613Z,7.30
2023-12-23T04:33:59.988Z,7.10
2023-12-23T04:36:27.330Z,7.20
2023-12-23T04:38:54.612Z,7.10
2023-12-23T04:41:22.099Z,7.00
2023-12-23T04:43:49.513Z,7.00
2023-12-23T04:46:16.869Z,6.90
2023-12-23T04:48:44.128Z,6.90
2023-12-23T04:51:11.384Z,7.10
2023-12-23T04:53:38.737Z,7.10
2023-12-23T04:56:06.447Z,7.00
2023-12-23T04:58:33.747Z,7.00
2023-12-23T05:01:01.126Z,7.00
2023-12-23T05:03:32.841Z,7.10
2023-12-23T05:06:00.406Z,6.90
2023-12-23T05:08:28.492Z,6.90
2023-12-23T05:10:55.874Z,6.90
2023-12-23T05:13:24.535Z,6.70
2023-12-23T05:15:52.080Z,6.80
2023-12-23T05:18:19.585Z,6.80
2023-12-23T05:20:46.933Z,6.90
2023-12-23T05:23:14.298Z,6.90
2023-12-23T05:25:41.683Z,6.80
2023-12-23T05:28:08.994Z,6.80
2023-12-23T05:30:37.033Z,6.90
2023-12-23T05:33:04.652Z,6.90
2023-12-23T05:35:32.034Z,6.80
2023-12-23T05:38:02.199Z,6.80
2023-12-23T05:40:31.338Z,7.00
2023-12-23T05:42:58.637Z,7.30
2023-12-23T05:45:25.907Z,7.10
2023-12-23T05:47:53.364Z,7.00
2023-12-23T05:50:20.980Z,6.80
2023-12-23T05:52:48.475Z,7.00
2023-12-23T05:55:16.102Z,6.90
2023-12-23T05:57:43.349Z,6.90
2023-12-23T06:00:13.310Z,6.70
2023-12-23T06:02:40.902Z,6.70
2023-12-23T06:05:08.327Z,6.60
2023-12-23T06:07:35.841Z,6.70
2023-12-23T06:10:03.183Z,6.60
2023-12-23T06:12:30.571Z,6.60
2023-12-23T06:14:59.105Z,6.60
2023-12-23T06:17:29.716Z,6.50
2023-12-23T06:19:57.080Z,6.50
2023-12-23T06:22:24.411Z,6.70
2023-12-23T06:24:51.689Z,6.60
2023-12-23T06:27:19.019Z,6.70
2023-12-23T06:29:46.493Z,6.60
2023-12-23T06:32:13.792Z,6.60
2023-12-23T06:34:41.172Z,6.60
2023-12-23T06:37:08.446Z,6.60
2023-12-23T06:39:35.941Z,7.20
2023-12-23T06:42:03.231Z,8.00
2023-12-23T06:44:30.674Z,7.00
2023-12-23T06:46:58.014Z,6.60
2023-12-23T06:49:25.651Z,6.40
2023-12-23T06:51:52.950Z,6.40
2023-12-23T06:54:20.205Z,6.20
2023-12-23T06:56:47.451Z,6.20
2023-12-23T06:59:15.230Z,6.10
2023-12-23T07:01:42.546Z,6.10
2023-12-23T07:04:10.093Z,6.10
2023-12-23T07:06:37.851Z,6.10
2023-12-23T07:09:08.790Z,6.00
2023-12-23T07:11:37.503Z,6.00
2023-12-23T07:14:05.186Z,6.00
2023-12-23T07:16:32.473Z,6.10
2023-12-23T07:18:59.860Z,6.30
2023-12-23T07:21:27.134Z,6.40
2023-12-23T07:23:55.078Z,6.50
2023-12-23T07:26:23.684Z,6.60
2023-12-23T07:28:51.108Z,6.80
2023-12-23T07:31:19.250Z,6.80
2023-12-23T07:33:47.930Z,6.80
2023-12-23T07:36:15.454Z,6.90
2023-12-23T07:38:42.692Z,7.10
2023-12-23T07:41:10.457Z,7.20
2023-12-23T07:43:38.370Z,7.30
2023-12-23T07:46:06.549Z,7.40
2023-12-23T07:48:33.878Z,7.50
2023-12-23T07:51:09.390Z,7.60
2023-12-23T07:53:36.954Z,7.70
2023-12-23T07:56:04.687Z,7.90
2023-12-23T07:58:31.962Z,8.00
2023-12-23T08:00:59.407Z,8.10
2023-12-23T08:03:26.673Z,8.10
2023-12-23T08:05:54.116Z,8.10
2023-12-23T08:08:21.549Z,8.20
2023-12-23T08:10:49.005Z,8.30
2023-12-23T08:13:16.334Z,8.40
2023-12-23T08:15:43.922Z,8.40
2023-12-23T08:18:11.810Z,8.40
2023-12-23T08:20:40.663Z,8.60
2023-12-23T08:23:08.644Z,8.70
2023-12-23T08:25:36.033Z,8.80
2023-12-23T08:28:03.374Z,9.00
2023-12-23T08:30:30.807Z,9.10
2023-12-23T08:32:58.214Z,9.20
2023-12-23T08:35:25.832Z,9.30
2023-12-23T08:37:53.497Z,9.20
2023-12-23T08:40:21.184Z,9.20
2023-12-23T08:42:48.624Z,9.30
2023-12-23T08:45:16.086Z,9.30
2023-12-23T08:47:43.971Z,9.30
2023-12-23T08:50:11.622Z,9.30
2023-12-23T08:52:38.893Z,9.40
2023-12-23T08:55:06.542Z,9.50
2023-12-23T08:57:35.110Z,9.50
2023-12-23T09:00:02.878Z,9.70
2023-12-23T09:02:30.119Z,9.70
2023-12-23T09:04:57.542Z,9.80
2023-12-23T09:07:24.848Z,9.80
2023-12-23T09:09:52.099Z,10.00
2023-12-23T09:12:20.638Z,10.00
2023-12-23T09:14:50.596Z,10.10
2023-12-23T09:17:17.985Z,10.20
2023-12-23T09:19:45.324Z,10.30
2023-12-23T09:22:12.599Z,10.20
2023-12-23T09:24:42.714Z,10.30
2023-12-23T09:27:09.916Z,10.40
2023-12-23T09:29:37.195Z,10.50
2023-12-23T09:32:04.841Z,10.60
2023-12-23T09:34:32.617Z,10.50
2023-12-23T09:37:01.151Z,10.50
2023-12-23T09:39:28.472Z,10.60
2023-12-23T09:41:56.299Z,10.60
2023-12-23T09:44:25.089Z,10.70
2023-12-23T09:46:52.642Z,10.70
2023-12-23T09:49:20.006Z,10.50
2023-12-23T09:51:48.778Z,10.60
2023-12-23T09:54:20.959Z,10.70
2023-12-23T09:56:52.241Z,10.60
2023-12-23T09:59:20.514Z,10.70
2023-12-23T10:01:47.927Z,10.80
2023-12-23T10:04:15.355Z,10.70
2023-12-23T10:06:42.773Z,10.70
2023-12-23T10:09:11.749Z,10.70
2023-12-23T10:11:39.037Z,10.70
2023-12-23T10:14:06.733Z,10.80
2023-12-23T10:16:34.043Z,10.80
2023-12-23T10:19:01.777Z,10.80
2023-12-23T10:21:29.251Z,10.90
2023-12-23T10:23:56.555Z,11.00
2023-12-23T10:26:24.518Z,11.20
2023-12-23T10:28:58.826Z,11.10
2023-12-23T10:31:30.998Z,11.10
2023-12-23T10:34:03.646Z,11.20
2023-12-23T10:36:31.909Z,11.20
2023-12-23T10:39:04.216Z,11.30
2023-12-23T10:41:51.783Z,11.20
2023-12-23T10:44:19.931Z,11.30
2023-12-23T10:46:48.114Z,11.30
2023-12-23T10:49:16.489Z,11.30
2023-12-23T10:51:44.893Z,11.30
2023-12-23T10:54:13.480Z,11.30
2023-12-23T10:56:41.713Z,11.30
2023-12-23T10:59:09.721Z,11.20
2023-12-23T11:01:40.163Z,11.30
2023-12-23T11:04:07.672Z,11.30
2023-12-23T11:06:45.190Z,11.30
2023-12-23T11:09:13.666Z,11.20
2023-12-23T11:11:43.524Z,11.20
2023-12-23T11:14:10.937Z,11.40
2023-12-23T11:16:43.135Z,11.30
2023-12-23T11:19:10.597Z,11.40
2023-12-23T11:21:37.975Z,11.40
2023-12-23T11:24:34.910Z,11.20
2023-12-23T11:27:02.226Z,11.30
2023-12-23T11:29:29.963Z,11.20
2023-12-23T11:32:12.481Z,11.30
2023-12-23T11:34:41.672Z,11.30
2023-12-23T11:37:08.928Z,11.20
2023-12-23T11:39:37.097Z,11.20
2023-12-23T11:42:05.247Z,11.00
2023-12-23T11:44:33.826Z,11.10
2023-12-23T11:47:03.857Z,11.10
2023-12-23T11:49:31.368Z,11.10
2023-12-23T11:51:58.644Z,11.10
2023-12-23T11:54:26.101Z,11.20
2023-12-23T11:56:53.433Z,11.10
2023-12-23T11:59:20.826Z,11.10
2023-12-23T12:01:49.120Z,11.10
2023-12-23T12:04:18.132Z,11.10
2023-12-23T12:06:45.823Z,11.00
2023-12-23T12:09:13.113Z,11.20
2023-12-23T12:11:40.575Z,11.20
2023-12-23T12:14:08.729Z,11.20
2023-12-23T12:16:37.354Z,11.20
2023-12-23T12:19:05.095Z,11.30
2023-12-23T12:21:32.490Z,11.40
2023-12-23T12:24:00.625Z,11.50
2023-12-23T12:26:28.131Z,11.50
2023-12-23T12:28:57.088Z,11.40
2023-12-23T12:31:24.435Z,11.60
2023-12-23T12:33:51.899Z,11.70
2023-12-23T12:36:21.759Z,11.70
2023-12-23T12:38:49.115Z,11.80
2023-12-23T12:41:17.277Z,11.90
2023-12-23T12:43:45.220Z,11.90
2023-12-23T12:46:16.214Z,11.60
2023-12-23T12:48:45.730Z,11.60
2023-12-23T12:51:15.133Z,11.50
2023-12-23T12:53:42.459Z,11.50
2023-12-23T12:56:13.650Z,11.40
2023-12-23T12:58:45.663Z,11.30
2023-12-23T13:01:14.700Z,11.40
2023-12-23T13:03:42.248Z,11.50
2023-12-23T13:06:09.754Z,11.20
2023-12-23T13:08:37.118Z,11.40
2023-12-23T13:11:04.985Z,11.40
2023-12-23T13:13:32.513Z,11.20
2023-12-23T13:15:59.867Z,11.10
2023-12-23T13:18:27.598Z,11.00
2023-12-23T13:20:54.961Z,11.00
2023-12-23T13:23:22.289Z,11.00
2023-12-23T13:25:49.601Z,11.10
2023-12-23T13:28:16.956Z,11.10
2023-12-23T13:30:44.336Z,11.00
2023-12-23T13:33:11.700Z,10.90
2023-12-23T13:35:39.280Z,10.90
2023-12-23T13:38:06.759Z,11.00
2023-12-23T13:40:34.051Z,11.00
2023-12-23T13:43:01.343Z,10.90
2023-12-23T13:45:28.646Z,10.90
2023-12-23T13:47:56.012Z,10.90
2023-12-23T13:50:23.541Z,10.90
2023-12-23T13:52:51.230Z,10.90
2023-12-23T13:55:18.730Z,11.00
2023-12-23T13:57:46.060Z,10.90
2023-12-23T14:00:14.039Z,10.80
2023-12-23T14:02:41.307Z,10.80
2023-12-23T14:05:09.045Z,10.70
2023-12-23T14:07:36.433Z,10.70
2023-12-23T14:10:03.950Z,10.70
2023-12-23T14:12:31.223Z,10.60
2023-12-23T14:14:58.609Z,10.60
2023-12-23T14:17:26.004Z,10.50
2023-12-23T14:19:53.389Z,10.50
2023-12-23T14:22:20.709Z,10.40
2023-12-23T14:24:47.988Z,10.40
2023-12-23T14:27:15.279Z,10.40
2023-12-23T14:29:46.550Z,10.30
2023-12-23T14:32:13.974Z,10.20
2023-12-23T14:34:41.362Z,10.20
2023-12-23T14:37:08.621Z,10.10
2023-12-23T14:39:35.952Z,10.00
2023-12-23T14:42:03.353Z,9.90
2023-12-23T14:44:30.706Z,9.90
2023-12-23T14:46:58.165Z,9.80
2023-12-23T14:49:25.563Z,9.80
2023-12-23T14:51:52.973Z,9.80
2023-12-23T14:54:21.241Z,9.70
2023-12-23T14:56:48.697Z,9.60
2023-12-23T14:59:16.014Z,9.70
2023-12-23T15:01:43.329Z,9.60
2023-12-23T15:04:10.695Z,9.50
2023-12-23T15:06:37.996Z,9.50
2023-12-23T15:09:05.790Z,9.50
2023-12-23T15:11:33.134Z,9.50
2023-12-23T15:14:00.523Z,9.50
2023-12-23T15:16:27.972Z,9.50
2023-12-23T15:18:57.009Z,9.40
2023-12-23T15:21:24.988Z,9.40
2023-12-23T15:23:52.329Z,9.40
2023-12-23T15:26:19.660Z,9.40
2023-12-23T15:28:46.915Z,9.40
2023-12-23T15:31:14.252Z,9.40
2023-12-23T15:33:41.536Z,9.40
2023-12-23T15:36:12.388Z,9.50
2023-12-23T15:38:39.648Z,9.50
2023-12-23T15:41:07.027Z,9.40
2023-12-23T15:43:34.312Z,9.40
2023-12-23T15:46:02.453Z,9.40
2023-12-23T15:48:29.901Z,9.40
2023-12-23T15:50:57.216Z,9.30
2023-12-23T15:53:24.517Z,9.40
2023-12-23T15:55:51.927Z,9.40
2023-12-23T15:58:19.339Z,9.50
2023-12-23T16:00:46.645Z,9.40
2023-12-23T16:03:14.005Z,9.50
2023-12-23T16:05:41.394Z,9.60
2023-12-23T16:08:10.670Z,9.50
2023-12-23T16:10:38.150Z,9.40
2023-12-23T16:13:07.236Z,9.60
2023-12-23T16:15:34.621Z,9.70
2023-12-23T16:18:03.212Z,9.70
2023-12-23T16:20:30.652Z,9.70
2023-12-23T16:22:59.560Z,9.70
2023-12-23T16:25:27.004Z,9.80
2023-12-23T16:27:54.518Z,9.80
2023-12-23T16:30:21.832Z,9.80
2023-12-23T16:32:50.256Z,9.90
2023-12-23T16:35:17.923Z,9.90
2023-12-23T16:37:45.173Z,9.90
2023-12-23T16:40:12.991Z,9.90
2023-12-23T16:42:40.302Z,9.90
2023-12-23T16:45:08.510Z,9.80
2023-12-23T16:47:36.010Z,9.90
2023-12-23T16:50:05.067Z,9.90
2023-12-23T16:52:32.664Z,9.90
2023-12-23T16:55:00.057Z,9.80
2023-12-23T16:57:27.401Z,9.80
2023-12-23T16:59:54.962Z,9.80
2023-12-23T17:02:23.357Z,9.80
2023-12-23T17:04:51.252Z,9.80
2023-12-23T17:07:18.764Z,9.90
2023-12-23T17:09:46.203Z,9.80
2023-12-23T17:12:13.680Z,9.80
2023-12-23T17:14:40.932Z,9.80
2023-12-23T17:17:08.203Z,9.60
2023-12-23T17:19:35.520Z,9.70
2023-12-23T17:22:02.778Z,9.60
2023-12-23T17:24:30.073Z,9.70
2023-12-23T17:26:57.520Z,9.70
2023-12-23T17:29:24.862Z,9.60
2023-12-23T17:31:52.210Z,9.50
2023-12-23T17:34:19.597Z,9.50
2023-12-23T17:36:46.908Z,9.50
2023-12-23T17:39:14.159Z,9.40
2023-12-23T17:41:41.554Z,9.50
2023-12-23T17:44:08.918Z,9.50
2023-12-23T17:46:36.375Z,9.30
2023-12-23T17:49:03.724Z,9.30
2023-12-23T17:51:31.118Z,9.40
2023-12-23T17:53:58.380Z,9.30
2023-12-23T17:56:25.690Z,9.20
2023-12-23T17:58:53.044Z,9.20
2023-12-23T18:01:20.394Z,9.30
2023-12-23T18:03:47.724Z,9.30
2023-12-23T18:06:15.200Z,9.10
2023-12-23T18:08:42.909Z,9.10
2023-12-23T18:11:10.200Z,9.10
2023-12-23T18:13:37.514Z,9.00
2023-12-23T18:16:05.102Z,9.10
2023-12-23T18:18:32.490Z,9.10
2023-12-23T18:20:59.783Z,9.10
2023-12-23T18:23:27.094Z,9.10
2023-12-23T18:25:55.638Z,9.30
2023-12-23T18:28:23.037Z,9.10
2023-12-23T18:30:50.312Z,9.10
2023-12-23T18:33:17.859Z,9.20
2023-12-23T18:35:46.077Z,9.30
2023-12-23T18:38:14.574Z,9.30
2023-12-23T18:40:41.960Z,9.40
2023-12-23T18:43:10.561Z,9.40
2023-12-23T18:45:38.191Z,9.30
2023-12-23T18:48:06.051Z,9.50
2023-12-23T18:50:39.213Z,9.60
2023-12-23T18:53:06.625Z,9.50
2023-12-23T18:55:38.092Z,9.50
2023-12-23T18:58:05.713Z,9.70
2023-12-23T19:00:33.625Z,9.70
2023-12-23T19:03:01.130Z,9.50
2023-12-23T19:05:28.565Z,9.50
2023-12-23T19:07:57.707Z,9.60
2023-12-23T19:10:25.009Z,9.80
2023-12-23T19:12:52.513Z,9.80
2023-12-23T19:15:19.893Z,9.80
2023-12-23T19:17:48.811Z,9.80
2023-12-23T19:20:19.198Z,9.80
2023-12-23T19:22:46.841Z,9.80
2023-12-23T19:25:14.265Z,9.70
2023-12-23T19:27:41.626Z,9.70
2023-12-23T19:30:10.304Z,9.60
2023-12-23T19:32:41.523Z,9.70
2023-12-23T19:35:09.149Z,9.80
2023-12-23T19:37:38.426Z,9.60
2023-12-23T19:40:10.217Z,9.60
2023-12-23T19:42:38.973Z,9.50
2023-12-23T19:45:07.501Z,9.70
2023-12-23T19:47:45.345Z,9.60
2023-12-23T19:50:13.576Z,9.90
2023-12-23T19:52:40.952Z,9.80
2023-12-23T19:55:09.181Z,9.60
2023-12-23T19:57:36.648Z,9.40
2023-12-23T20:00:06.763Z,9.40
2023-12-23T20:02:34.175Z,9.40
2023-12-23T20:05:01.683Z,9.50
2023-12-23T20:07:29.008Z,9.20
2023-12-23T20:09:56.290Z,9.40
2023-12-23T20:12:23.607Z,9.50
2023-12-23T20:14:52.195Z,9.70
2023-12-23T20:17:19.649Z,9.60
2023-12-23T20:19:47.019Z,9.50
2023-12-23T20:22:14.275Z,9.30
2023-12-23T20:24:41.645Z,9.70
2023-12-23T20:27:09.234Z,9.70
2023-12-23T20:29:36.890Z,9.60
2023-12-23T20:32:05.571Z,9.50
2023-12-23T20:34:33.040Z,9.20
2023-12-23T20:37:02.582Z,9.20
2023-12-23T20:39:32.728Z,9.40
2023-12-23T20:42:03.039Z,9.20
2023-12-23T20:44:31.902Z,9.00
2023-12-23T20:47:00.304Z,8.80
2023-12-23T20:49:29.532Z,8.80
2023-12-23T20:51:56.927Z,8.80
2023-12-23T20:54:24.300Z,8.90
2023-12-23T20:56:53.590Z,8.90
2023-12-23T20:59:21.132Z,8.60
2023-12-23T21:01:50.147Z,8.60
2023-12-23T21:04:17.576Z,9.00
2023-12-23T21:06:44.825Z,9.10
2023-12-23T21:09:12.250Z,9.00
2023-12-23T21:11:39.643Z,8.90
2023-12-23T21:14:06.957Z,9.00
2023-12-23T21:16:34.350Z,9.00
2023-12-23T21:19:01.721Z,8.90
2023-12-23T21:21:29.187Z,8.70
2023-12-23T21:24:01.294Z,9.00
2023-12-23T21:26:28.834Z,8.80
2023-12-23T21:28:56.439Z,8.70
2023-12-23T21:31:23.944Z,9.20
2023-12-23T21:33:51.292Z,9.30
2023-12-23T21:36:18.712Z,9.60
2023-12-23T21:38:46.077Z,9.60
2023-12-23T21:41:13.432Z,9.40
2023-12-23T21:43:40.726Z,9.60
2023-12-23T21:46:08.031Z,9.60
2023-12-23T21:48:35.657Z,9.70
2023-12-23T21:51:04.072Z,9.50
2023-12-23T21:53:31.473Z,9.40
2023-12-23T21:55:59.038Z,9.30
2023-12-23T21:58:26.437Z,9.20
2023-12-23T22:00:53.838Z,9.50
2023-12-23T22:03:21.309Z,9.10
2023-12-23T22:05:48.770Z,9.10
2023-12-23T22:08:18.149Z,8.80
2023-12-23T22:10:46.848Z,9.00
2023-12-23T22:13:15.108Z,8.80
2023-12-23T22:15:43.787Z,8.70
2023-12-23T22:18:11.228Z,8.40
2023-12-23T22:20:38.539Z,8.20
2023-12-23T22:23:05.961Z,8.50
2023-12-23T22:25:33.292Z,8.30
2023-12-23T22:28:00.689Z,8.80
2023-12-23T22:30:28.076Z,8.90
2023-12-23T22:32:55.898Z,8.70
2023-12-23T22:35:23.631Z,8.50
2023-12-23T22:37:51.136Z,8.30
2023-12-23T22:40:18.487Z,8.20
2023-12-23T22:42:45.891Z,7.90
2023-12-23T22:45:14.968Z,8.00
2023-12-23T22:47:42.587Z,7.70
2023-12-23T22:50:10.610Z,7.50
2023-12-23T22:52:38.017Z,7.40
2023-12-23T22:55:06.239Z,7.40
2023-12-23T22:57:33.664Z,7.30
2023-12-23T23:00:01.236Z,7.40
2023-12-23T23:02:28.801Z,7.20
2023-12-23T23:04:56.413Z,7.40
2023-12-23T23:07:23.786Z,7.50
2023-12-23T23:09:51.080Z,7.90
2023-12-23T23:12:19.789Z,7.90
2023-12-23T23:14:47.061Z,7.80
2023-12-23T23:17:14.580Z,7.80
2023-12-23T23:19:43.952Z,8.30
2023-12-23T23:22:11.769Z,8.50
2023-12-23T23:24:39.059Z,8.40
2023-12-23T23:27:06.314Z,8.60
2023-12-23T23:29:33.823Z,8.40
2023-12-23T23:32:01.367Z,8.10
2023-12-23T23:34:29.436Z,7.90
2023-12-23T23:36:56.755Z,8.10
2023-12-23T23:39:24.064Z,8.20
2023-12-23T23:41:51.356Z,8.40
2023-12-23T23:44:18.661Z,8.40
2023-12-23T23:46:45.981Z,8.10
2023-12-23T23:49:13.320Z,8.00
2023-12-23T23:51:40.704Z,7.90
2023-12-23T23:54:07.966Z,8.20
2023-12-23T23:56:35.756Z,8.40
2023-12-23T23:59:03.513Z,8.20
